Time;durP1;ratioP1;P1;durP2;ratioP2;P2;SDS_P1;SDS_P2;PMS_P1;PMS_P2;Temp;Humidity;BMP_temperature;BMP_pressure;BME280_temperature;BME280_humidity;BME280_pressure;Samples;Min_cycle;Max_cycle;Signal;HPM_P1;HPM_P2
2023/12/03 00:02:26;;;;;;;57.90;42.07;;;-1.60;92.70;;;;;;4976045;28;20178;-91
2023/12/03 00:04:58;;;;;;;54.77;32.47;;;-1.60;92.90;;;;;;4976094;28;20217;-91
2023/12/03 00:07:42;;;;;;;50.83;33.40;;;-1.60;92.80;;;;;;4993681;28;20179;-90
2023/12/03 00:10:18;;;;;;;54.00;43.27;;;-1.60;93.00;;;;;;4975263;28;20180;-91
2023/12/03 00:12:55;;;;;;;56.20;44.40;;;-1.60;93.00;;;;;;4977015;28;20200;-91
2023/12/03 00:15:28;;;;;;;59.77;44.77;;;-1.60;93.10;;;;;;4976299;28;20197;-92
2023/12/03 00:18:00;;;;;;;54.57;34.37;;;-1.60;93.20;;;;;;4976048;28;20694;-91
2023/12/03 00:20:28;;;;;;;54.43;33.57;;;-1.60;93.20;;;;;;4975440;28;20177;-91
2023/12/03 00:23:00;;;;;;;60.37;44.70;;;-1.60;93.20;;;;;;4976259;28;20184;-91
2023/12/03 00:25:28;;;;;;;58.43;43.90;;;-1.60;93.30;;;;;;4976794;28;20176;-92
2023/12/03 00:27:53;;;;;;;61.90;44.80;;;-1.60;93.30;;;;;;4975924;28;20204;-91
2023/12/03 00:30:31;;;;;;;62.60;45.30;;;-1.60;93.30;;;;;;4993659;28;20179;-91
2023/12/03 00:33:38;;;;;;;52.97;32.43;;;-1.60;93.40;;;;;;4977247;28;20168;-91
2023/12/03 00:36:07;;;;;;;52.27;33.37;;;-1.60;93.40;;;;;;4943392;28;20559;-90
2023/12/03 00:38:48;;;;;;;62.07;42.70;;;-1.60;93.40;;;;;;4976138;28;20202;-90
2023/12/03 00:41:15;;;;;;;55.17;40.70;;;-1.60;93.50;;;;;;4976178;28;20196;-91
2023/12/03 00:43:53;;;;;;;57.77;42.17;;;-1.50;93.50;;;;;;4993741;28;20178;-89
2023/12/03 00:47:21;;;;;;;45.53;32.20;;;-1.40;93.60;;;;;;4994405;28;20179;-88
2023/12/03 00:49:59;;;;;;;51.43;33.50;;;-1.40;93.60;;;;;;4898955;29;20548;-90
2023/12/03 00:52:27;;;;;;;55.67;41.83;;;-1.40;93.60;;;;;;4899076;29;20696;-90
2023/12/03 00:54:53;;;;;;;48.90;39.63;;;-1.40;93.60;;;;;;4935571;29;20221;-92
2023/12/03 00:57:30;;;;;;;52.37;41.83;;;-1.30;93.60;;;;;;4955768;28;20565;-91
2023/12/03 01:00:05;;;;;;;43.40;30.70;;;-1.30;93.70;;;;;;4976821;28;20277;-91
2023/12/03 01:02:40;;;;;;;43.27;31.07;;;-1.30;93.70;;;;;;4997232;28;20188;-91
2023/12/03 01:05:11;;;;;;;47.13;39.57;;;-1.20;93.70;;;;;;4979468;28;20196;-92
2023/12/03 01:08:01;;;;;;;49.30;39.03;;;-1.20;93.70;;;;;;4979562;28;20201;-91
2023/12/03 01:10:33;;;;;;;45.73;39.53;;;-1.20;93.70;;;;;;4979049;28;20189;-92
2023/12/03 01:14:03;;;;;;;44.70;38.80;;;-1.10;93.70;;;;;;4979576;28;20295;-92
2023/12/03 01:16:34;;;;;;;37.27;27.90;;;-1.00;93.80;;;;;;4882983;29;20188;-92
2023/12/03 01:19:14;;;;;;;45.03;40.17;;;-1.00;93.70;;;;;;4883219;29;20235;-91
2023/12/03 01:21:59;;;;;;;45.53;40.60;;;-1.10;93.70;;;;;;4882802;29;20182;-91
2023/12/03 01:24:31;;;;;;;47.27;41.53;;;-1.00;93.70;;;;;;4940687;28;20209;-92
2023/12/03 01:27:05;;;;;;;46.73;41.83;;;-1.00;93.60;;;;;;4978108;28;20197;-92
2023/12/03 01:29:33;;;;;;;40.20;29.83;;;-1.10;93.60;;;;;;4978882;28;20203;-91
2023/12/03 01:32:04;;;;;;;37.67;30.30;;;-1.00;93.60;;;;;;4978840;28;20185;-91
2023/12/03 01:34:34;;;;;;;46.87;41.87;;;-1.00;93.60;;;;;;4995804;28;20185;-91
2023/12/03 01:37:11;;;;;;;46.50;41.93;;;-1.10;93.50;;;;;;4979145;28;20185;-91
2023/12/03 01:39:42;;;;;;;50.93;45.67;;;-1.10;93.50;;;;;;4978690;28;20235;-91
2023/12/03 01:42:20;;;;;;;40.70;33.43;;;-1.20;93.30;;;;;;4979148;28;20528;-91
2023/12/03 01:44:53;;;;;;;42.83;33.40;;;-1.30;93.10;;;;;;4979458;28;20254;-91
2023/12/03 01:47:22;;;;;;;51.50;45.33;;;-1.40;93.10;;;;;;4996278;28;20244;-91
2023/12/03 01:49:54;;;;;;;50.73;45.33;;;-1.40;93.10;;;;;;4978244;28;20244;-91
2023/12/03 01:52:32;;;;;;;53.20;47.67;;;-1.30;93.10;;;;;;4979247;28;20181;-91
2023/12/03 01:55:03;;;;;;;52.80;47.33;;;-1.40;93.00;;;;;;4978867;28;20183;-91
2023/12/03 01:57:52;;;;;;;42.10;32.23;;;-1.40;92.90;;;;;;4977406;28;20258;-91
2023/12/03 02:00:26;;;;;;;40.10;32.47;;;-1.30;92.90;;;;;;4978087;28;20200;-91
2023/12/03 02:02:52;;;;;;;53.53;47.80;;;-1.40;92.80;;;;;;4978544;28;20181;-91
2023/12/03 02:05:23;;;;;;;52.73;47.10;;;-1.50;92.50;;;;;;4978798;28;20632;-91
2023/12/03 02:07:51;;;;;;;68.63;49.03;;;-1.60;92.40;;;;;;4978435;28;20630;-91
2023/12/03 02:10:20;;;;;;;54.10;33.20;;;-1.60;92.30;;;;;;4977565;28;20191;-91
2023/12/03 02:13:00;;;;;;;41.30;32.03;;;-1.60;92.20;;;;;;4978376;28;20175;-91
2023/12/03 02:15:38;;;;;;;45.33;34.27;;;-1.60;92.30;;;;;;4978790;28;20178;-92
2023/12/03 02:18:04;;;;;;;49.37;42.53;;;-1.60;92.20;;;;;;4995687;28;20573;-92
2023/12/03 02:20:32;;;;;;;53.90;46.30;;;-1.60;92.20;;;;;;4977821;28;20191;-92
2023/12/03 02:23:11;;;;;;;54.40;47.20;;;-1.60;92.30;;;;;;4978448;28;20186;-92
2023/12/03 02:25:44;;;;;;;49.83;35.90;;;-1.60;92.40;;;;;;4978813;28;20175;-91
2023/12/03 02:28:18;;;;;;;49.13;34.57;;;-1.70;92.30;;;;;;4977903;28;20296;-91
2023/12/03 02:30:46;;;;;;;58.00;45.73;;;-1.70;92.40;;;;;;4995980;28;20165;-91
2023/12/03 02:33:15;;;;;;;61.20;44.53;;;-1.80;92.50;;;;;;4977408;28;20183;-92
2023/12/03 02:35:57;;;;;;;67.57;49.57;;;-1.70;92.60;;;;;;4995695;28;20186;-92
2023/12/03 02:38:23;;;;;;;57.50;36.00;;;-1.80;92.60;;;;;;4995195;28;20264;-93
2023/12/03 02:40:54;;;;;;;57.33;37.03;;;-1.60;92.80;;;;;;4995274;28;20199;-92
2023/12/03 02:43:29;;;;;;;50.90;34.13;;;-1.50;92.90;;;;;;4977770;28;20179;-92
2023/12/03 02:46:03;;;;;;;60.23;43.73;;;-1.50;92.90;;;;;;4995172;28;20157;-92
2023/12/03 02:48:34;;;;;;;60.20;45.33;;;-1.60;92.90;;;;;;4995049;28;20279;-92
2023/12/03 02:51:03;;;;;;;58.27;44.13;;;-1.60;93.00;;;;;;4994859;28;20175;-92
2023/12/03 02:53:44;;;;;;;60.10;37.40;;;-1.60;93.10;;;;;;4978246;28;20205;-92
2023/12/03 02:56:12;;;;;;;55.50;34.97;;;-1.60;93.20;;;;;;4977127;28;20261;-91
2023/12/03 02:58:40;;;;;;;68.20;45.10;;;-1.60;93.20;;;;;;4977335;28;20214;-91
2023/12/03 03:01:11;;;;;;;59.50;44.77;;;-1.50;93.30;;;;;;4977857;28;20192;-91
2023/12/03 03:03:40;;;;;;;67.50;44.07;;;-1.50;93.30;;;;;;4977703;28;20193;-91
2023/12/03 03:06:12;;;;;;;62.57;45.37;;;-1.50;93.40;;;;;;4977576;28;20202;-91
2023/12/03 03:09:03;;;;;;;64.73;35.67;;;-1.60;93.40;;;;;;4994583;28;20198;-91
2023/12/03 03:11:36;;;;;;;60.07;35.73;;;-1.60;93.40;;;;;;4977703;28;20276;-90
2023/12/03 03:14:02;;;;;;;58.87;35.17;;;-1.50;93.50;;;;;;4977462;28;20182;-91
2023/12/03 03:16:34;;;;;;;61.87;36.30;;;-1.60;93.50;;;;;;4977346;28;20669;-91
2023/12/03 03:19:12;;;;;;;54.00;34.47;;;-1.50;93.60;;;;;;4978031;28;20224;-91
2023/12/03 03:21:52;;;;;;;60.60;36.60;;;-1.50;93.60;;;;;;4978023;28;20177;-91
2023/12/03 03:24:20;;;;;;;64.97;37.17;;;-1.50;93.60;;;;;;4994705;28;20159;-91
2023/12/03 03:27:09;;;;;;;65.77;45.73;;;-1.40;93.70;;;;;;4977412;28;20261;-91
2023/12/03 03:29:54;;;;;;;70.87;46.40;;;-1.40;93.70;;;;;;4933139;28;20281;-91
2023/12/03 03:32:25;;;;;;;69.30;46.27;;;-1.30;93.80;;;;;;4977695;28;20270;-91
2023/12/03 03:35:06;;;;;;;70.67;46.93;;;-1.30;93.80;;;;;;4994751;28;20229;-91
2023/12/03 03:37:43;;;;;;;70.53;48.70;;;-1.30;93.80;;;;;;4977644;28;20178;-91
2023/12/03 03:40:11;;;;;;;65.67;47.27;;;-1.20;93.90;;;;;;4994750;28;20198;-92
2023/12/03 03:42:48;;;;;;;68.47;47.83;;;-1.10;93.90;;;;;;4976540;28;20271;-91
2023/12/03 03:45:35;;;;;;;65.30;45.83;;;-1.10;93.90;;;;;;4977686;28;20281;-91
2023/12/03 03:48:06;;;;;;;67.87;46.47;;;-1.20;93.90;;;;;;4976755;28;20198;-91
2023/12/03 03:50:40;;;;;;;69.73;47.47;;;-1.10;93.90;;;;;;4994765;28;20184;-92
2023/12/03 03:53:17;;;;;;;69.30;46.57;;;-1.10;93.90;;;;;;4994322;28;20176;-91
2023/12/03 03:55:51;;;;;;;67.73;46.40;;;-1.10;93.90;;;;;;4994215;28;20267;-91
2023/12/03 03:58:30;;;;;;;63.77;44.77;;;-1.10;93.90;;;;;;4994498;28;20223;-91
2023/12/03 04:01:11;;;;;;;66.57;42.67;;;-1.10;93.90;;;;;;4994221;28;20538;-91
2023/12/03 04:03:43;;;;;;;78.80;38.20;;;-1.20;93.90;;;;;;4976572;28;20192;-91
2023/12/03 04:06:15;;;;;;;89.13;42.80;;;-1.20;93.90;;;;;;4976228;28;20186;-90
2023/12/03 04:08:46;;;;;;;89.73;40.27;;;-1.30;94.10;;;;;;4993833;28;20217;-90
2023/12/03 04:11:20;;;;;;;104.33;50.00;;;-1.30;94.30;;;;;;4977378;28;20201;-91
2023/12/03 04:13:49;;;;;;;93.20;47.60;;;-1.30;94.40;;;;;;4977775;28;20200;-91
2023/12/03 04:16:27;;;;;;;124.63;49.83;;;-1.30;94.40;;;;;;4976955;28;20178;-91
2023/12/03 04:18:57;;;;;;;109.77;43.13;;;-1.30;94.50;;;;;;4976705;28;20215;-90
2023/12/03 04:21:26;;;;;;;108.43;43.30;;;-1.30;94.50;;;;;;4978367;28;20198;-91
2023/12/03 04:23:58;;;;;;;116.47;42.57;;;-1.30;94.60;;;;;;4980223;28;20186;-91
2023/12/03 04:26:32;;;;;;;129.67;50.80;;;-1.30;94.60;;;;;;4998032;28;20190;-91
2023/12/03 04:29:00;;;;;;;103.43;50.50;;;-1.30;94.60;;;;;;4979701;28;20297;-91
2023/12/03 04:35:27;;;;;;;132.03;39.67;;;-1.30;94.70;;;;;;4906521;29;20250;-91
2023/12/03 04:38:16;;;;;;;133.67;47.27;;;-1.30;94.70;;;;;;4979889;28;20211;-91
2023/12/03 04:40:45;;;;;;;123.67;46.90;;;-1.30;94.70;;;;;;4965615;28;20192;-91
2023/12/03 04:43:21;;;;;;;117.20;45.37;;;-1.30;94.80;;;;;;4980088;28;20187;-92
2023/12/03 04:45:54;;;;;;;121.93;47.83;;;-1.30;94.80;;;;;;4980485;28;20179;-91
2023/12/03 04:48:25;;;;;;;114.10;36.17;;;-1.20;94.80;;;;;;4980411;28;20205;-91
2023/12/03 04:51:07;;;;;;;115.20;36.40;;;-1.30;94.80;;;;;;4979809;28;20280;-91
2023/12/03 04:53:40;;;;;;;117.97;39.83;;;-1.30;94.90;;;;;;4980325;28;20238;-91
2023/12/03 04:56:32;;;;;;;99.80;42.00;;;-1.40;94.80;;;;;;4980808;28;20207;-91
2023/12/03 04:59:00;;;;;;;117.47;43.67;;;-1.40;94.90;;;;;;4979774;28;20235;-91
2023/12/03 05:01:33;;;;;;;147.37;34.13;;;-1.40;94.90;;;;;;4997126;28;20210;-91
2023/12/03 05:04:05;;;;;;;151.03;32.27;;;-1.40;94.90;;;;;;4979194;28;20210;-92
2023/12/03 05:06:42;;;;;;;108.03;41.13;;;-1.40;94.90;;;;;;4979355;28;20262;-92
2023/12/03 05:09:19;;;;;;;86.70;41.40;;;-1.40;94.90;;;;;;4997314;28;20338;-91
2023/12/03 05:11:51;;;;;;;102.70;41.07;;;-1.50;94.90;;;;;;4980402;28;20176;-91
2023/12/03 05:14:22;;;;;;;74.27;31.90;;;-1.50;95.00;;;;;;4979624;28;20186;-91
2023/12/03 05:17:06;;;;;;;111.90;35.33;;;-1.60;94.90;;;;;;4979362;28;20174;-91
2023/12/03 05:19:41;;;;;;;154.50;40.40;;;-1.60;95.00;;;;;;4980136;28;20266;-91
2023/12/03 05:22:27;;;;;;;128.27;43.23;;;-1.50;95.00;;;;;;4980149;28;20163;-91
2023/12/03 05:25:03;;;;;;;107.17;40.73;;;-1.40;95.10;;;;;;4979663;28;20589;-91
2023/12/03 05:27:37;;;;;;;152.50;36.10;;;-1.30;95.10;;;;;;4979346;28;20185;-91
2023/12/03 05:30:10;;;;;;;300.77;37.97;;;-1.30;95.10;;;;;;4997237;28;20158;-91
2023/12/03 05:32:36;;;;;;;132.13;41.70;;;-1.30;95.00;;;;;;4979328;28;20643;-91
2023/12/03 05:35:13;;;;;;;181.37;46.50;;;-1.30;95.00;;;;;;4996573;28;20224;-91
2023/12/03 05:37:50;;;;;;;148.33;42.87;;;-1.30;95.00;;;;;;4981211;28;20211;-90
2023/12/03 05:40:31;;;;;;;124.70;42.17;;;-1.40;94.90;;;;;;4996595;28;20183;-91
2023/12/03 05:43:18;;;;;;;108.87;34.63;;;-1.60;94.80;;;;;;4978757;28;20272;-91
2023/12/03 05:45:48;;;;;;;156.67;34.77;;;-1.60;94.80;;;;;;4978842;28;20229;-91
2023/12/03 05:48:28;;;;;;;108.73;35.77;;;-1.50;94.90;;;;;;4995748;28;20761;-91
2023/12/03 05:51:02;;;;;;;99.50;42.30;;;-1.60;94.80;;;;;;4979079;28;20166;-91
2023/12/03 05:53:41;;;;;;;144.93;39.30;;;-1.60;94.80;;;;;;4979340;28;20174;-91
2023/12/03 05:56:13;;;;;;;97.67;35.00;;;-1.70;94.80;;;;;;4995697;28;20175;-90
2023/12/03 05:58:44;;;;;;;134.97;35.23;;;-1.90;94.80;;;;;;4996102;28;20206;-90
2023/12/03 06:01:21;;;;;;;123.83;39.87;;;-1.80;94.90;;;;;;4978530;28;20184;-92
2023/12/03 06:04:06;;;;;;;144.07;38.00;;;-1.70;94.90;;;;;;4996200;28;20642;-91
2023/12/03 06:06:40;;;;;;;90.57;38.60;;;-1.80;94.90;;;;;;4978358;28;20288;-90
2023/12/03 06:09:13;;;;;;;83.87;31.03;;;-1.90;94.90;;;;;;4978449;28;20253;-91
2023/12/03 06:11:44;;;;;;;79.83;30.57;;;-1.90;95.00;;;;;;4978774;28;20189;-91
2023/12/03 06:14:12;;;;;;;77.97;35.27;;;-1.80;95.00;;;;;;4979116;28;20195;-91
2023/12/03 06:16:43;;;;;;;78.07;34.67;;;-1.80;95.00;;;;;;4978358;28;20186;-91
2023/12/03 06:19:22;;;;;;;87.03;33.00;;;-1.70;95.10;;;;;;4977239;28;20207;-91
2023/12/03 06:25:04;;;;;;;100.60;26.77;;;-1.80;95.00;;;;;;4996088;28;20177;-91
2023/12/03 06:27:46;;;;;;;106.63;35.00;;;-2.00;94.90;;;;;;4995370;28;20182;-90
2023/12/03 06:30:22;;;;;;;86.57;34.93;;;-2.00;95.00;;;;;;4977242;28;20186;-90
2023/12/03 06:32:50;;;;;;;134.03;35.10;;;-2.10;94.90;;;;;;4978161;28;20174;-91
2023/12/03 06:35:39;;;;;;;121.13;36.10;;;-2.10;95.00;;;;;;4977196;28;20193;-90
2023/12/03 06:38:07;;;;;;;80.20;24.13;;;-2.20;95.00;;;;;;4977773;28;20202;-91
2023/12/03 06:40:39;;;;;;;105.77;30.00;;;-2.20;95.10;;;;;;4995490;28;20270;-91
2023/12/03 06:43:05;;;;;;;81.50;34.03;;;-2.10;95.20;;;;;;4977480;28;20174;-90
2023/12/03 06:45:33;;;;;;;76.20;30.90;;;-2.30;95.20;;;;;;4977195;28;20247;-91
2023/12/03 06:48:04;;;;;;;77.17;26.57;;;-2.40;95.20;;;;;;4994881;28;20571;-91
2023/12/03 06:50:54;;;;;;;93.47;25.10;;;-2.50;95.30;;;;;;4994539;28;20166;-92
2023/12/03 06:53:34;;;;;;;94.30;26.47;;;-2.40;95.40;;;;;;4957820;28;20168;-90
2023/12/03 06:55:59;;;;;;;52.77;23.87;;;-2.60;95.30;;;;;;4974406;28;20527;-90
2023/12/03 06:58:27;;;;;;;119.73;28.13;;;-2.70;95.30;;;;;;4973667;28;20212;-90
2023/12/03 07:00:53;;;;;;;99.60;29.57;;;-2.70;95.40;;;;;;4975188;28;20172;-91
2023/12/03 07:03:21;;;;;;;68.40;25.37;;;-2.90;95.40;;;;;;4957612;28;20356;-90
2023/12/03 07:06:08;;;;;;;105.27;25.17;;;-2.90;95.60;;;;;;4974671;28;20198;-90
2023/12/03 07:08:39;;;;;;;77.20;21.93;;;-2.90;95.60;;;;;;4957812;28;20197;-90
2023/12/03 07:11:11;;;;;;;65.73;27.17;;;-3.00;95.60;;;;;;4958166;28;20205;-90
2023/12/03 07:13:41;;;;;;;42.57;21.50;;;-3.10;95.60;;;;;;4958237;28;20218;-91
2023/12/03 07:16:20;;;;;;;85.87;25.73;;;-3.00;95.70;;;;;;4975170;28;20163;-91
2023/12/03 07:18:48;;;;;;;74.63;19.90;;;-3.10;95.70;;;;;;4973671;28;20221;-91
2023/12/03 07:24:21;;;;;;;76.77;24.67;;;-3.20;95.70;;;;;;4975188;28;20554;-90
2023/12/03 07:26:59;;;;;;;58.27;22.67;;;-3.00;95.70;;;;;;4957738;28;20172;-91
2023/12/03 07:29:45;;;;;;;71.17;25.53;;;-3.00;95.70;;;;;;4957374;28;20203;-92
2023/12/03 07:32:29;;;;;;;80.60;25.03;;;-2.80;95.70;;;;;;4958121;28;20182;-92
2023/12/03 07:35:15;;;;;;;49.17;21.80;;;-2.80;95.70;;;;;;4956945;28;20634;-91
2023/12/03 07:40:46;;;;;;;91.80;32.93;;;-2.90;95.70;;;;;;4974710;28;20200;-91
2023/12/03 07:43:20;;;;;;;50.83;23.20;;;-2.90;95.60;;;;;;4939297;28;20650;-91
2023/12/03 07:46:01;;;;;;;;;;;;;;;;;;;;;
2023/12/03 07:49:29;;;;;;;71.63;27.17;;;-2.90;95.80;;;;;;4974741;28;20207;-91
2023/12/03 07:55:15;;;;;;;84.50;29.93;;;-2.80;95.80;;;;;;4914517;29;20228;-88
2023/12/03 07:58:02;;;;;;;107.93;31.10;;;-2.70;95.80;;;;;;4919447;29;20303;-91
2023/12/03 08:00:42;;;;;;;109.37;33.67;;;-2.70;95.90;;;;;;4903565;29;20182;-91
2023/12/03 08:03:27;;;;;;;83.13;23.83;;;-2.60;95.90;;;;;;4949937;28;20223;-92
2023/12/03 08:06:14;;;;;;;103.57;33.83;;;-2.60;95.90;;;;;;4961717;28;20201;-92
2023/12/03 08:09:30;;;;;;;52.33;21.17;;;-2.60;96.00;;;;;;4961052;28;20216;-90
2023/12/03 08:13:04;;;;;;;83.37;27.70;;;-2.50;96.00;;;;;;4945222;28;20185;-92
2023/12/03 08:18:42;;;;;;;;;;;;;;;;;;;;;
2023/12/03 08:21:43;;;;;;;53.87;18.20;;;-2.50;96.20;;;;;;4918967;29;20659;-92
2023/12/03 08:24:52;;;;;;;;;;;;;;;;;;;;;
2023/12/03 08:28:05;;;;;;;;;;;;;;;;;;;;;
2023/12/03 08:31:12;;;;;;;;;;;;;;;;;;;;;
2023/12/03 08:34:11;;;;;;;92.23;33.37;;;-2.30;96.20;;;;;;4978039;28;20523;-91
2023/12/03 08:37:04;;;;;;;35.17;22.37;;;-2.30;96.20;;;;;;4975310;28;20221;-91
2023/12/03 08:40:27;;;;;;;74.07;34.77;;;-2.20;96.30;;;;;;4979158;28;20697;-91
2023/12/03 08:54:14;;;;;;;110.33;40.03;;;-2.20;96.20;;;;;;4898950;29;20188;-91
2023/12/03 08:56:59;;;;;;;86.70;28.43;;;-2.10;96.20;;;;;;4913508;29;20187;-91
2023/12/03 09:00:10;;;;;;;;;;;;;;;;;;;;;
2023/12/03 09:03:05;;;;;;;84.50;28.97;;;-2.10;96.20;;;;;;4976747;28;20186;-91
2023/12/03 09:09:17;;;;;;;60.20;23.97;;;-2.10;96.20;;;;;;4961567;28;20352;-91
2023/12/03 09:22:22;;;;;;;104.63;45.00;;;-2.00;96.20;;;;;;4943815;28;20282;-90
2023/12/03 09:31:44;;;;;;;37.80;19.53;;;-2.00;96.10;;;;;;4968405;28;20201;-90
2023/12/03 09:34:39;;;;;;;63.60;28.30;;;-2.00;96.10;;;;;;4959758;28;20238;-90
2023/12/03 09:37:20;;;;;;;78.00;35.53;;;-2.00;96.10;;;;;;4959881;28;20183;-91
2023/12/03 09:39:48;;;;;;;54.10;21.00;;;-1.90;96.20;;;;;;4976172;28;20212;-88
2023/12/03 09:45:53;;;;;;;51.63;24.13;;;-1.80;96.20;;;;;;4959174;28;20183;-91
2023/12/03 10:06:49;;;;;;;73.47;30.27;;;-1.90;96.00;;;;;;5287728;23;20217;-90
2023/12/03 10:09:17;;;;;;;43.30;16.63;;;-1.90;96.00;;;;;;4993653;28;20244;-91
2023/12/03 10:11:55;;;;;;;56.77;21.60;;;-2.00;96.00;;;;;;4978815;28;20635;-91
2023/12/03 10:21:54;;;;;;;62.90;22.77;;;-1.70;96.00;;;;;;4994161;28;20244;-91
2023/12/03 10:24:25;;;;;;;77.23;30.10;;;-1.90;95.80;;;;;;4994890;28;20344;-89
2023/12/03 10:27:16;;;;;;;80.43;36.80;;;-1.80;95.90;;;;;;4995445;28;20165;-91
2023/12/03 10:29:42;;;;;;;78.23;38.67;;;-1.80;95.90;;;;;;4978711;28;20211;-91
2023/12/03 10:32:09;;;;;;;79.60;34.53;;;-1.70;95.90;;;;;;4979177;28;20193;-92
2023/12/03 10:34:35;;;;;;;80.90;33.83;;;-1.70;95.90;;;;;;4978844;28;20182;-90
2023/12/03 10:37:01;;;;;;;72.93;31.03;;;-1.80;95.80;;;;;;4969444;28;20615;-91
2023/12/03 10:39:29;;;;;;;91.23;36.63;;;-1.80;95.80;;;;;;4994979;28;20283;-91
2023/12/03 10:41:55;;;;;;;72.27;29.70;;;-1.70;95.90;;;;;;4977881;28;20170;-91
2023/12/03 10:44:38;;;;;;;91.93;37.07;;;-1.70;95.80;;;;;;4995020;28;20171;-90
2023/12/03 10:47:04;;;;;;;94.63;35.23;;;-1.70;95.80;;;;;;4995135;28;20150;-91
2023/12/03 10:49:36;;;;;;;88.70;36.37;;;-1.70;95.80;;;;;;4977497;28;20212;-91
2023/12/03 10:52:02;;;;;;;96.97;38.53;;;-1.60;95.90;;;;;;4977393;28;20561;-91
2023/12/03 10:54:28;;;;;;;98.43;38.83;;;-1.60;95.90;;;;;;4977493;28;20174;-91
2023/12/03 10:57:00;;;;;;;91.17;39.53;;;-1.50;95.90;;;;;;4977063;28;20648;-92
2023/12/03 10:59:37;;;;;;;91.10;38.07;;;-1.40;95.90;;;;;;4977131;28;20292;-91
2023/12/03 11:06:37;;;;;;;89.13;38.40;;;-1.30;95.80;;;;;;4994961;28;20233;-91
2023/12/03 11:47:42;;;;;;;84.77;45.57;;;-1.10;95.10;;;;;;3292688;23;20309;-89
2023/12/03 12:05:04;;;;;;;68.00;33.30;;;-0.90;94.70;;;;;;5552979;23;20248;-87
2023/12/03 12:07:35;;;;;;;74.17;34.50;;;-0.90;94.70;;;;;;4975032;28;20631;-88
2023/12/03 12:10:04;;;;;;;71.70;33.97;;;-0.80;94.70;;;;;;4957455;28;20311;-88
2023/12/03 12:13:29;;;;;;;69.80;34.73;;;-0.80;94.60;;;;;;4957314;28;20223;-88
2023/12/03 12:16:10;;;;;;;74.93;45.00;;;-0.90;94.50;;;;;;4957081;28;20218;-87
2023/12/03 12:21:21;;;;;;;72.87;41.97;;;-0.80;94.50;;;;;;4972610;28;20729;-87
2023/12/03 12:36:28;;;;;;;67.63;33.80;;;-0.80;94.40;;;;;;4965695;28;20267;-89
2023/12/03 12:39:19;;;;;;;71.57;44.30;;;-0.90;94.20;;;;;;4952629;29;20213;-89
2023/12/03 12:42:56;;;;;;;;;;;;;;;;;;;;;
2023/12/03 12:46:18;;;;;;;66.37;34.13;;;-0.80;94.30;;;;;;4880157;29;20175;-89
2023/12/03 12:49:23;;;;;;;69.27;36.47;;;-0.90;94.30;;;;;;4957308;28;20211;-89
2023/12/03 12:52:17;;;;;;;67.77;43.10;;;-0.90;94.30;;;;;;4964339;28;20191;-89
2023/12/03 12:55:25;;;;;;;76.73;47.07;;;-0.80;94.20;;;;;;4949798;29;20277;-90
2023/12/03 12:57:58;;;;;;;72.90;46.97;;;-0.80;94.30;;;;;;4952593;29;20588;-87
2023/12/03 13:03:55;;;;;;;69.67;43.40;;;-0.70;94.20;;;;;;4898861;29;20328;-89
2023/12/03 13:06:52;;;;;;;69.00;44.23;;;-0.70;94.20;;;;;;4913464;29;20720;-89
2023/12/03 13:09:18;;;;;;;77.83;47.77;;;-0.70;94.00;;;;;;4956475;28;20670;-89
2023/12/03 13:12:04;;;;;;;63.10;33.43;;;-0.70;94.00;;;;;;4957194;29;20189;-88
2023/12/03 13:14:56;;;;;;;60.80;32.37;;;-0.70;93.90;;;;;;4956974;29;20174;-88
2023/12/03 13:17:54;;;;;;;58.63;45.67;;;-0.70;93.90;;;;;;4956192;29;20190;-87
2023/12/03 13:23:57;;;;;;;61.17;44.07;;;-0.60;93.80;;;;;;4957227;29;20717;-90
2023/12/03 13:27:06;;;;;;;52.77;32.70;;;-0.70;93.40;;;;;;4940602;29;20254;-88
2023/12/03 13:30:18;;;;;;;55.90;31.87;;;-0.70;93.10;;;;;;4907523;29;20300;-89
2023/12/03 13:33:26;;;;;;;62.67;48.13;;;-0.80;92.90;;;;;;4935731;29;20185;-90
2023/12/03 13:36:38;;;;;;;64.43;47.13;;;-0.90;92.60;;;;;;4954835;29;20197;-90
2023/12/03 13:39:24;;;;;;;53.13;31.07;;;-0.90;92.70;;;;;;4948695;29;20261;-91
2023/12/03 13:41:50;;;;;;;55.30;34.73;;;-0.90;92.70;;;;;;4956141;29;20703;-89
2023/12/03 13:44:42;;;;;;;69.50;48.13;;;-0.80;92.80;;;;;;4956226;29;20186;-90
2023/12/03 13:47:13;;;;;;;66.50;47.47;;;-0.90;92.70;;;;;;4955328;29;20322;-90
2023/12/03 13:49:51;;;;;;;64.13;38.93;;;-0.90;92.70;;;;;;4954765;29;20681;-89
2023/12/03 13:52:23;;;;;;;51.53;33.07;;;-0.80;92.80;;;;;;4956991;28;20232;-90
2023/12/03 13:54:59;;;;;;;58.17;33.43;;;-0.80;92.80;;;;;;4938589;28;20631;-90
2023/12/03 13:57:25;;;;;;;62.80;38.60;;;-0.90;92.90;;;;;;4956414;28;20216;-90
2023/12/03 13:59:56;;;;;;;72.17;41.23;;;-0.90;93.10;;;;;;4956915;29;20204;-90
2023/12/03 14:02:37;;;;;;;86.90;48.97;;;-0.80;93.20;;;;;;4940195;29;20178;-91
2023/12/03 14:05:08;;;;;;;71.17;39.77;;;-0.60;93.30;;;;;;4956919;29;20218;-89
2023/12/03 14:07:42;;;;;;;64.13;37.13;;;-0.60;93.30;;;;;;4956938;29;20606;-90
2023/12/03 14:10:13;;;;;;;74.17;45.33;;;-0.60;93.30;;;;;;4939271;28;20205;-90
2023/12/03 14:12:54;;;;;;;62.83;39.30;;;-0.60;93.30;;;;;;4955608;28;20171;-90
2023/12/03 14:15:29;;;;;;;58.37;36.93;;;-0.60;93.30;;;;;;4956936;29;20166;-90
2023/12/03 14:18:01;;;;;;;57.73;37.70;;;-0.60;93.30;;;;;;4939076;29;20265;-90
2023/12/03 14:20:51;;;;;;;51.03;31.27;;;-0.60;93.30;;;;;;4939160;29;20213;-90
2023/12/03 14:23:18;;;;;;;58.50;34.07;;;-0.60;93.30;;;;;;4956096;29;20191;-89
2023/12/03 14:25:56;;;;;;;61.13;37.17;;;-0.70;93.30;;;;;;4938949;28;20189;-89
2023/12/03 14:28:36;;;;;;;60.40;35.67;;;-0.70;93.50;;;;;;4939433;29;20780;-89
2023/12/03 14:31:10;;;;;;;62.17;39.80;;;-0.60;93.50;;;;;;4939149;28;20194;-90
2023/12/03 14:34:06;;;;;;;53.67;30.90;;;-0.60;93.50;;;;;;4940103;28;20170;-89
2023/12/03 14:36:35;;;;;;;58.17;33.03;;;-0.60;93.60;;;;;;4939971;29;20174;-89
2023/12/03 14:39:07;;;;;;;60.80;38.27;;;-0.60;93.70;;;;;;4956213;29;20209;-89
2023/12/03 14:41:35;;;;;;;66.73;39.17;;;-0.50;93.80;;;;;;4939677;29;20659;-89
2023/12/03 14:48:50;;;;;;;60.50;31.73;;;-0.50;94.00;;;;;;4945729;29;20181;-88
2023/12/03 14:50:50;;;;;;;63.03;36.23;;;-0.40;94.20;;;;;;4947153;29;20261;-90
2023/12/03 14:53:16;;;;;;;60.27;34.90;;;-0.30;94.10;;;;;;4940504;29;20209;-88
2023/12/03 14:56:05;;;;;;;69.63;38.50;;;-0.30;94.20;;;;;;4939680;29;20174;-89
2023/12/03 14:58:44;;;;;;;71.37;33.43;;;-0.30;94.20;;;;;;4955275;29;20302;-90
2023/12/03 15:01:32;;;;;;;64.07;32.30;;;-0.30;94.30;;;;;;4939440;29;20193;-87
2023/12/03 15:04:29;;;;;;;;;;;;;;;;;;;;;
2023/12/03 15:08:06;;;;;;;67.50;36.53;;;-0.20;94.30;;;;;;4956177;29;20187;-88
2023/12/03 15:11:00;;;;;;;55.90;28.03;;;-0.20;94.40;;;;;;4896389;29;20324;-89
2023/12/03 15:13:45;;;;;;;60.17;28.90;;;-0.20;94.30;;;;;;4898709;29;20188;-88
2023/12/03 15:16:28;;;;;;;62.33;32.67;;;-0.10;94.30;;;;;;4939917;28;20190;-89
2023/12/03 15:19:20;;;;;;;66.23;30.60;;;-0.10;94.30;;;;;;4938965;29;20269;-88
2023/12/03 15:22:31;;;;;;;60.00;29.70;;;-0.10;94.30;;;;;;4938661;29;20276;-90
2023/12/03 15:25:33;;;;;;;64.37;31.30;;;-0.10;94.30;;;;;;4899174;29;20207;-89
2023/12/03 15:28:12;;;;;;;71.17;33.73;;;0.00;94.30;;;;;;4898609;29;20210;-89
2023/12/03 15:31:13;;;;;;;72.37;32.80;;;0.00;94.30;;;;;;4915437;29;20178;-90
2023/12/03 15:33:40;;;;;;;59.80;29.90;;;0.00;94.20;;;;;;4917502;29;20207;-87
2023/12/03 15:36:51;;;;;;;;;;;;;;;;;;;;;
2023/12/03 15:42:53;;;;;;;56.60;28.43;;;0.00;94.30;;;;;;4915363;29;20265;-89
2023/12/03 15:45:25;;;;;;;51.00;28.57;;;0.00;94.30;;;;;;4926214;29;20277;-89
2023/12/03 15:47:56;;;;;;;47.77;25.40;;;0.00;94.20;;;;;;4954843;28;20212;-90
2023/12/03 15:50:25;;;;;;;57.60;27.07;;;0.00;94.10;;;;;;4954435;29;20206;-89
2023/12/03 15:52:53;;;;;;;51.60;25.00;;;0.00;94.10;;;;;;4955599;29;20176;-88
2023/12/03 15:55:22;;;;;;;61.47;27.93;;;0.00;94.10;;;;;;4953518;28;20274;-89
2023/12/03 15:57:54;;;;;;;62.23;30.37;;;0.00;94.10;;;;;;4952745;29;20215;-89
2023/12/03 16:00:26;;;;;;;60.70;29.73;;;0.00;94.10;;;;;;4954765;28;20530;-89
2023/12/03 16:03:02;;;;;;;54.93;28.23;;;0.00;94.10;;;;;;4953630;29;20547;-89
2023/12/03 16:05:36;;;;;;;61.27;28.00;;;0.00;94.20;;;;;;4955444;29;20164;-89
2023/12/03 16:08:04;;;;;;;54.60;27.33;;;0.00;94.20;;;;;;4954720;29;20673;-89
2023/12/03 16:10:53;;;;;;;58.67;28.30;;;0.10;94.30;;;;;;4953964;28;20182;-89
2023/12/03 16:13:52;;;;;;;52.97;27.63;;;0.10;94.30;;;;;;4954076;29;20180;-90
2023/12/03 16:16:25;;;;;;;60.70;25.60;;;0.10;94.30;;;;;;4953623;28;20174;-89
2023/12/03 16:18:56;;;;;;;54.53;27.33;;;0.10;94.30;;;;;;4958383;29;20682;-89
2023/12/03 16:21:33;;;;;;;56.63;27.43;;;0.20;94.30;;;;;;4958766;29;20219;-89
2023/12/03 16:24:04;;;;;;;50.97;27.53;;;0.20;94.20;;;;;;4958807;29;20160;-89